sensor_id;sensor_type;location;lat;lon;timestamp;pressure;altitude;pressure_sealevel;temperature;humidity
63535;BME280;55128;50.230;18.944;2022-08-21T00:03:37;98040.69;;;20.69;85.65
63535;BME280;55128;50.230;18.944;2022-08-21T00:08:38;98036.00;;;20.71;85.84
63535;BME280;55128;50.230;18.944;2022-08-21T00:13:39;98043.78;;;20.74;85.56
63535;BME280;55128;50.230;18.944;2022-08-21T00:18:39;98045.47;;;20.75;85.48
63535;BME280;55128;50.230;18.944;2022-08-21T00:23:41;98029.50;;;20.91;84.67
63535;BME280;55128;50.230;18.944;2022-08-21T00:28:42;98011.91;;;20.87;85.16
63535;BME280;55128;50.230;18.944;2022-08-21T00:33:43;98007.50;;;20.86;85.46
63535;BME280;55128;50.230;18.944;2022-08-21T00:38:44;98020.38;;;20.92;85.29
63535;BME280;55128;50.230;18.944;2022-08-21T00:43:45;97995.50;;;20.99;84.84
63535;BME280;55128;50.230;18.944;2022-08-21T00:48:46;97985.63;;;21.07;84.37
63535;BME280;55128;50.230;18.944;2022-08-21T00:53:46;97979.16;;;21.00;84.79
63535;BME280;55128;50.230;18.944;2022-08-21T00:58:47;97979.25;;;21.08;84.30
63535;BME280;55128;50.230;18.944;2022-08-21T01:03:48;97958.28;;;21.02;84.35
63535;BME280;55128;50.230;18.944;2022-08-21T01:08:49;97953.31;;;20.97;84.54
63535;BME280;55128;50.230;18.944;2022-08-21T01:13:50;97953.06;;;20.91;84.91
63535;BME280;55128;50.230;18.944;2022-08-21T01:18:52;97957.19;;;20.95;85.15
63535;BME280;55128;50.230;18.944;2022-08-21T01:23:53;97946.06;;;20.80;86.34
63535;BME280;55128;50.230;18.944;2022-08-21T01:29:30;97948.22;;;20.94;85.20
63535;BME280;55128;50.230;18.944;2022-08-21T01:34:33;97942.94;;;21.03;84.64
63535;BME280;55128;50.230;18.944;2022-08-21T01:39:36;97936.97;;;20.99;84.81
63535;BME280;55128;50.230;18.944;2022-08-21T01:44:37;97925.03;;;21.02;84.73
63535;BME280;55128;50.230;18.944;2022-08-21T01:49:38;97903.56;;;21.00;84.70
63535;BME280;55128;50.230;18.944;2022-08-21T01:54:39;97901.06;;;20.99;84.43
63535;BME280;55128;50.230;18.944;2022-08-21T01:59:40;97893.66;;;21.01;84.17
63535;BME280;55128;50.230;18.944;2022-08-21T02:04:41;97884.69;;;21.00;84.36
63535;BME280;55128;50.230;18.944;2022-08-21T02:09:41;97878.00;;;21.04;84.27
63535;BME280;55128;50.230;18.944;2022-08-21T02:14:44;97881.53;;;21.05;84.41
63535;BME280;55128;50.230;18.944;2022-08-21T02:19:45;97881.69;;;21.03;84.76
63535;BME280;55128;50.230;18.944;2022-08-21T02:24:45;97877.69;;;20.89;85.12
63535;BME280;55128;50.230;18.944;2022-08-21T02:29:46;97883.00;;;20.81;85.39
63535;BME280;55128;50.230;18.944;2022-08-21T02:34:47;97869.81;;;20.96;85.10
63535;BME280;55128;50.230;18.944;2022-08-21T02:39:49;97872.13;;;21.09;84.60
63535;BME280;55128;50.230;18.944;2022-08-21T02:44:49;97875.44;;;21.03;84.84
63535;BME280;55128;50.230;18.944;2022-08-21T02:49:51;97890.72;;;21.12;84.69
63535;BME280;55128;50.230;18.944;2022-08-21T02:54:52;97891.47;;;21.22;84.28
63535;BME280;55128;50.230;18.944;2022-08-21T02:59:53;97894.00;;;21.06;85.23
63535;BME280;55128;50.230;18.944;2022-08-21T03:04:53;97886.59;;;21.26;84.41
63535;BME280;55128;50.230;18.944;2022-08-21T03:09:54;97882.03;;;21.26;84.46
63535;BME280;55128;50.230;18.944;2022-08-21T03:14:54;97887.13;;;21.29;84.56
63535;BME280;55128;50.230;18.944;2022-08-21T03:19:55;97886.50;;;21.35;84.56
63535;BME280;55128;50.230;18.944;2022-08-21T03:24:57;97896.63;;;21.33;84.48
63535;BME280;55128;50.230;18.944;2022-08-21T03:30:00;97907.81;;;21.39;84.48
63535;BME280;55128;50.230;18.944;2022-08-21T03:35:01;97916.44;;;21.42;84.31
63535;BME280;55128;50.230;18.944;2022-08-21T03:40:06;97924.00;;;21.39;84.76
63535;BME280;55128;50.230;18.944;2022-08-21T03:45:08;97925.69;;;21.40;84.79
63535;BME280;55128;50.230;18.944;2022-08-21T03:50:09;97922.63;;;21.34;84.61
63535;BME280;55128;50.230;18.944;2022-08-21T03:55:09;97923.31;;;21.36;84.72
63535;BME280;55128;50.230;18.944;2022-08-21T04:00:11;97927.88;;;21.54;83.95
63535;BME280;55128;50.230;18.944;2022-08-21T04:05:13;97921.81;;;21.60;83.89
63535;BME280;55128;50.230;18.944;2022-08-21T04:10:14;97918.44;;;21.58;83.71
63535;BME280;55128;50.230;18.944;2022-08-21T04:15:15;97915.88;;;21.57;83.96
63535;BME280;55128;50.230;18.944;2022-08-21T04:20:17;97912.91;;;21.42;84.25
63535;BME280;55128;50.230;18.944;2022-08-21T04:25:20;97919.16;;;21.24;85.56
63535;BME280;55128;50.230;18.944;2022-08-21T04:30:21;97924.41;;;21.44;85.03
63535;BME280;55128;50.230;18.944;2022-08-21T04:35:23;97922.47;;;21.54;84.71
63535;BME280;55128;50.230;18.944;2022-08-21T04:40:25;97925.59;;;21.67;84.49
63535;BME280;55128;50.230;18.944;2022-08-21T04:45:32;97923.97;;;21.74;84.46
63535;BME280;55128;50.230;18.944;2022-08-21T04:50:38;97931.16;;;21.92;83.94
63535;BME280;55128;50.230;18.944;2022-08-21T04:55:41;97931.53;;;21.97;83.73
63535;BME280;55128;50.230;18.944;2022-08-21T05:00:44;97934.63;;;22.10;82.71
63535;BME280;55128;50.230;18.944;2022-08-21T05:05:45;97946.00;;;21.88;83.71
63535;BME280;55128;50.230;18.944;2022-08-21T05:10:46;97949.03;;;21.85;83.81
63535;BME280;55128;50.230;18.944;2022-08-21T05:15:47;97956.50;;;21.91;83.69
63535;BME280;55128;50.230;18.944;2022-08-21T05:20:48;97952.34;;;22.05;83.63
63535;BME280;55128;50.230;18.944;2022-08-21T05:25:48;97951.63;;;21.94;83.61
63535;BME280;55128;50.230;18.944;2022-08-21T05:30:49;97956.66;;;21.89;84.35
63535;BME280;55128;50.230;18.944;2022-08-21T05:35:51;97961.94;;;21.99;84.08
63535;BME280;55128;50.230;18.944;2022-08-21T05:40:53;97976.50;;;21.98;84.11
63535;BME280;55128;50.230;18.944;2022-08-21T05:45:56;97970.53;;;21.94;83.88
63535;BME280;55128;50.230;18.944;2022-08-21T05:50:57;97978.84;;;22.01;83.85
63535;BME280;55128;50.230;18.944;2022-08-21T05:55:59;97972.06;;;21.97;83.71
63535;BME280;55128;50.230;18.944;2022-08-21T06:01:01;97971.00;;;21.90;83.91
63535;BME280;55128;50.230;18.944;2022-08-21T06:06:03;97979.59;;;21.85;84.38
63535;BME280;55128;50.230;18.944;2022-08-21T06:11:05;97973.88;;;21.88;84.72
63535;BME280;55128;50.230;18.944;2022-08-21T06:16:13;97971.59;;;21.76;85.58
63535;BME280;55128;50.230;18.944;2022-08-21T06:21:14;97980.88;;;21.37;84.14
63535;BME280;55128;50.230;18.944;2022-08-21T06:26:15;97982.50;;;21.12;84.23
63535;BME280;55128;50.230;18.944;2022-08-21T06:31:19;97989.69;;;21.21;84.04
63535;BME280;55128;50.230;18.944;2022-08-21T06:36:22;97986.50;;;21.08;83.92
63535;BME280;55128;50.230;18.944;2022-08-21T06:41:22;97993.59;;;21.09;83.55
63535;BME280;55128;50.230;18.944;2022-08-21T06:46:25;97993.38;;;21.02;82.72
63535;BME280;55128;50.230;18.944;2022-08-21T06:51:26;97993.88;;;21.06;82.45
63535;BME280;55128;50.230;18.944;2022-08-21T06:56:27;97997.06;;;21.01;80.71
63535;BME280;55128;50.230;18.944;2022-08-21T07:01:27;98009.50;;;21.12;79.88
63535;BME280;55128;50.230;18.944;2022-08-21T07:06:28;98006.69;;;21.04;78.63
63535;BME280;55128;50.230;18.944;2022-08-21T07:11:29;98020.16;;;20.86;77.41
63535;BME280;55128;50.230;18.944;2022-08-21T07:16:29;98013.44;;;20.62;77.96
63535;BME280;55128;50.230;18.944;2022-08-21T07:21:30;98018.31;;;20.86;76.11
63535;BME280;55128;50.230;18.944;2022-08-21T07:26:30;98019.97;;;21.15;75.92
63535;BME280;55128;50.230;18.944;2022-08-21T07:31:31;98023.47;;;21.25;75.11
63535;BME280;55128;50.230;18.944;2022-08-21T07:36:32;98032.66;;;21.50;74.88
63535;BME280;55128;50.230;18.944;2022-08-21T07:41:33;98022.66;;;21.61;73.92
63535;BME280;55128;50.230;18.944;2022-08-21T07:46:34;98022.25;;;21.55;73.73
63535;BME280;55128;50.230;18.944;2022-08-21T07:51:35;98024.63;;;21.77;73.22
63535;BME280;55128;50.230;18.944;2022-08-21T07:56:35;98023.84;;;22.10;73.71
63535;BME280;55128;50.230;18.944;2022-08-21T08:01:36;98021.13;;;22.55;72.20
63535;BME280;55128;50.230;18.944;2022-08-21T08:06:37;98018.88;;;22.84;71.76
63535;BME280;55128;50.230;18.944;2022-08-21T08:11:39;98012.28;;;23.46;69.53
63535;BME280;55128;50.230;18.944;2022-08-21T08:16:41;98014.75;;;24.54;66.05
63535;BME280;55128;50.230;18.944;2022-08-21T08:21:41;98015.34;;;26.43;62.93
63535;BME280;55128;50.230;18.944;2022-08-21T08:26:42;98020.41;;;27.78;55.46
63535;BME280;55128;50.230;18.944;2022-08-21T08:31:43;98023.03;;;28.43;53.71
63535;BME280;55128;50.230;18.944;2022-08-21T08:36:44;98020.09;;;29.14;52.30
63535;BME280;55128;50.230;18.944;2022-08-21T08:41:47;98018.44;;;29.20;50.76
63535;BME280;55128;50.230;18.944;2022-08-21T08:46:51;98021.13;;;29.88;48.49
63535;BME280;55128;50.230;18.944;2022-08-21T08:52:03;98026.41;;;29.90;48.58
63535;BME280;55128;50.230;18.944;2022-08-21T08:57:10;98020.88;;;30.63;45.61
63535;BME280;55128;50.230;18.944;2022-08-21T09:02:16;98021.44;;;30.98;44.89
63535;BME280;55128;50.230;18.944;2022-08-21T09:18:38;98023.47;;;30.58;43.57
63535;BME280;55128;50.230;18.944;2022-08-21T09:23:47;98028.53;;;29.94;45.57
63535;BME280;55128;50.230;18.944;2022-08-21T09:28:56;98027.25;;;28.74;48.18
63535;BME280;55128;50.230;18.944;2022-08-21T09:34:04;98025.75;;;28.64;48.51
63535;BME280;55128;50.230;18.944;2022-08-21T09:39:07;98025.06;;;28.06;49.51
63535;BME280;55128;50.230;18.944;2022-08-21T09:44:08;98020.41;;;28.28;50.43
63535;BME280;55128;50.230;18.944;2022-08-21T09:49:08;98017.59;;;27.71;51.58
63535;BME280;55128;50.230;18.944;2022-08-21T09:54:15;98014.34;;;27.83;51.76
63535;BME280;55128;50.230;18.944;2022-08-21T09:59:26;98023.97;;;27.79;51.53
63535;BME280;55128;50.230;18.944;2022-08-21T10:04:34;98025.25;;;27.03;53.01
63535;BME280;55128;50.230;18.944;2022-08-21T10:09:35;98027.88;;;26.82;53.97
63535;BME280;55128;50.230;18.944;2022-08-21T10:20:14;98045.50;;;25.80;57.27
63535;BME280;55128;50.230;18.944;2022-08-21T10:25:32;98038.28;;;25.49;57.98
63535;BME280;55128;50.230;18.944;2022-08-21T10:36:01;98043.72;;;25.49;58.77
63535;BME280;55128;50.230;18.944;2022-08-21T10:46:55;98038.63;;;25.46;58.70
63535;BME280;55128;50.230;18.944;2022-08-21T10:57:09;98038.13;;;25.42;58.65
63535;BME280;55128;50.230;18.944;2022-08-21T11:02:23;98039.94;;;24.88;59.65
63535;BME280;55128;50.230;18.944;2022-08-21T11:07:37;98053.59;;;24.55;60.16
63535;BME280;55128;50.230;18.944;2022-08-21T11:12:53;98049.53;;;24.59;60.68
63535;BME280;55128;50.230;18.944;2022-08-21T11:18:15;98044.09;;;24.51;61.64
63535;BME280;55128;50.230;18.944;2022-08-21T11:23:25;98040.56;;;24.42;62.14
63535;BME280;55128;50.230;18.944;2022-08-21T11:28:34;98040.72;;;24.49;61.74
63535;BME280;55128;50.230;18.944;2022-08-21T11:39:01;98039.69;;;24.58;60.90
63535;BME280;55128;50.230;18.944;2022-08-21T11:44:28;98040.53;;;24.58;61.18
63535;BME280;55128;50.230;18.944;2022-08-21T11:49:49;98046.47;;;24.70;60.38
63535;BME280;55128;50.230;18.944;2022-08-21T12:00:56;98039.09;;;23.90;64.01
63535;BME280;55128;50.230;18.944;2022-08-21T12:06:01;98046.50;;;23.55;64.63
63535;BME280;55128;50.230;18.944;2022-08-21T12:16:15;98038.69;;;23.27;65.19
63535;BME280;55128;50.230;18.944;2022-08-21T12:21:20;98046.34;;;22.98;66.06
63535;BME280;55128;50.230;18.944;2022-08-21T12:26:58;98044.50;;;22.64;67.43
63535;BME280;55128;50.230;18.944;2022-08-21T12:32:23;98045.31;;;22.56;68.26
63535;BME280;55128;50.230;18.944;2022-08-21T12:37:43;98046.53;;;22.62;68.06
63535;BME280;55128;50.230;18.944;2022-08-21T12:42:49;98052.34;;;22.23;69.24
63535;BME280;55128;50.230;18.944;2022-08-21T12:48:10;98055.38;;;21.76;69.68
63535;BME280;55128;50.230;18.944;2022-08-21T12:58:41;98048.28;;;20.83;71.71
63535;BME280;55128;50.230;18.944;2022-08-21T13:03:45;98056.06;;;20.49;73.64
63535;BME280;55128;50.230;18.944;2022-08-21T13:08:48;98060.63;;;20.48;74.25
63535;BME280;55128;50.230;18.944;2022-08-21T13:13:53;98065.81;;;20.59;73.71
63535;BME280;55128;50.230;18.944;2022-08-21T13:19:03;98062.53;;;20.18;75.80
63535;BME280;55128;50.230;18.944;2022-08-21T13:24:16;98063.28;;;20.11;77.74
63535;BME280;55128;50.230;18.944;2022-08-21T13:29:19;98062.97;;;20.14;76.89
63535;BME280;55128;50.230;18.944;2022-08-21T13:34:26;98061.03;;;19.67;77.83
63535;BME280;55128;50.230;18.944;2022-08-21T13:39:27;98073.03;;;19.63;78.03
63535;BME280;55128;50.230;18.944;2022-08-21T13:49:40;98074.31;;;19.49;78.55
63535;BME280;55128;50.230;18.944;2022-08-21T13:54:43;98070.53;;;19.61;77.63
63535;BME280;55128;50.230;18.944;2022-08-21T13:59:45;98077.03;;;19.59;77.41
63535;BME280;55128;50.230;18.944;2022-08-21T14:04:57;98085.41;;;19.56;77.56
63535;BME280;55128;50.230;18.944;2022-08-21T14:10:04;98095.56;;;19.42;77.59
63535;BME280;55128;50.230;18.944;2022-08-21T14:15:06;98096.38;;;19.23;78.13
63535;BME280;55128;50.230;18.944;2022-08-21T14:20:10;98102.41;;;19.56;77.70
63535;BME280;55128;50.230;18.944;2022-08-21T14:30:27;98100.16;;;19.61;77.25
63535;BME280;55128;50.230;18.944;2022-08-21T14:35:28;98099.53;;;19.48;76.69
63535;BME280;55128;50.230;18.944;2022-08-21T14:40:29;98089.63;;;19.39;77.49
63535;BME280;55128;50.230;18.944;2022-08-21T14:45:30;98093.56;;;19.35;77.00
63535;BME280;55128;50.230;18.944;2022-08-21T14:50:31;98095.84;;;19.30;77.63
63535;BME280;55128;50.230;18.944;2022-08-21T14:55:32;98104.91;;;19.38;77.33
63535;BME280;55128;50.230;18.944;2022-08-21T15:00:54;98107.47;;;19.30;77.28
63535;BME280;55128;50.230;18.944;2022-08-21T15:05:55;98110.00;;;19.22;78.04
63535;BME280;55128;50.230;18.944;2022-08-21T15:10:56;98103.47;;;19.15;78.41
63535;BME280;55128;50.230;18.944;2022-08-21T15:15:57;98109.66;;;19.06;77.79
63535;BME280;55128;50.230;18.944;2022-08-21T15:20:57;98110.63;;;19.04;77.90
63535;BME280;55128;50.230;18.944;2022-08-21T15:25:58;98112.81;;;19.11;77.86
63535;BME280;55128;50.230;18.944;2022-08-21T15:31:00;98114.19;;;19.05;78.36
63535;BME280;55128;50.230;18.944;2022-08-21T15:36:01;98127.28;;;19.29;77.37
63535;BME280;55128;50.230;18.944;2022-08-21T15:41:03;98126.44;;;19.29;76.97
63535;BME280;55128;50.230;18.944;2022-08-21T15:46:04;98122.69;;;18.79;78.72
63535;BME280;55128;50.230;18.944;2022-08-21T15:51:06;98118.28;;;18.78;78.63
63535;BME280;55128;50.230;18.944;2022-08-21T15:56:12;98110.19;;;18.69;78.83
63535;BME280;55128;50.230;18.944;2022-08-21T16:01:15;98117.47;;;18.47;79.60
63535;BME280;55128;50.230;18.944;2022-08-21T16:06:16;98134.44;;;18.48;80.05
63535;BME280;55128;50.230;18.944;2022-08-21T16:11:16;98140.97;;;18.34;80.71
63535;BME280;55128;50.230;18.944;2022-08-21T16:16:21;98137.56;;;18.32;80.82
63535;BME280;55128;50.230;18.944;2022-08-21T16:21:22;98140.31;;;18.20;81.25
63535;BME280;55128;50.230;18.944;2022-08-21T16:26:23;98143.72;;;18.01;82.50
63535;BME280;55128;50.230;18.944;2022-08-21T16:31:24;98142.50;;;18.26;81.78
63535;BME280;55128;50.230;18.944;2022-08-21T16:36:25;98156.06;;;18.25;81.64
63535;BME280;55128;50.230;18.944;2022-08-21T16:41:30;98158.47;;;18.07;82.73
63535;BME280;55128;50.230;18.944;2022-08-21T16:46:35;98155.78;;;18.07;83.34
63535;BME280;55128;50.230;18.944;2022-08-21T16:51:37;98154.03;;;17.96;82.93
63535;BME280;55128;50.230;18.944;2022-08-21T16:56:39;98131.72;;;17.84;83.82
63535;BME280;55128;50.230;18.944;2022-08-21T17:01:40;98128.06;;;17.85;84.17
63535;BME280;55128;50.230;18.944;2022-08-21T17:06:41;98128.00;;;17.97;83.79
63535;BME280;55128;50.230;18.944;2022-08-21T17:11:45;98119.22;;;17.95;83.60
63535;BME280;55128;50.230;18.944;2022-08-21T17:16:51;98124.53;;;18.06;83.35
63535;BME280;55128;50.230;18.944;2022-08-21T17:21:53;98097.09;;;18.02;83.34
63535;BME280;55128;50.230;18.944;2022-08-21T17:26:55;98089.72;;;17.83;83.82
63535;BME280;55128;50.230;18.944;2022-08-21T17:31:56;98096.69;;;17.75;84.02
63535;BME280;55128;50.230;18.944;2022-08-21T17:36:57;98090.59;;;17.73;84.49
63535;BME280;55128;50.230;18.944;2022-08-21T17:42:01;98085.28;;;17.61;84.61
63535;BME280;55128;50.230;18.944;2022-08-21T17:47:03;98099.50;;;17.73;84.76
63535;BME280;55128;50.230;18.944;2022-08-21T17:52:04;98115.47;;;17.86;83.87
63535;BME280;55128;50.230;18.944;2022-08-21T17:57:07;98120.97;;;17.73;84.80
63535;BME280;55128;50.230;18.944;2022-08-21T18:02:14;98132.69;;;17.83;83.85
63535;BME280;55128;50.230;18.944;2022-08-21T18:07:17;98137.56;;;17.78;84.08
63535;BME280;55128;50.230;18.944;2022-08-21T18:12:17;98147.19;;;17.81;84.27
63535;BME280;55128;50.230;18.944;2022-08-21T18:17:20;98142.09;;;17.89;84.44
63535;BME280;55128;50.230;18.944;2022-08-21T18:22:21;98120.97;;;17.73;84.96
63535;BME280;55128;50.230;18.944;2022-08-21T18:27:22;98121.59;;;17.77;84.70
63535;BME280;55128;50.230;18.944;2022-08-21T18:32:23;98123.75;;;17.83;84.41
63535;BME280;55128;50.230;18.944;2022-08-21T18:37:25;98124.38;;;17.86;84.11
63535;BME280;55128;50.230;18.944;2022-08-21T18:42:27;98135.34;;;17.95;84.05
63535;BME280;55128;50.230;18.944;2022-08-21T18:47:37;98140.84;;;17.93;83.75
63535;BME280;55128;50.230;18.944;2022-08-21T18:52:39;98128.06;;;17.85;83.83
63535;BME280;55128;50.230;18.944;2022-08-21T18:57:41;98131.81;;;17.83;84.16
63535;BME280;55128;50.230;18.944;2022-08-21T19:02:42;98141.56;;;17.95;83.98
63535;BME280;55128;50.230;18.944;2022-08-21T19:07:43;98145.81;;;17.98;83.74
63535;BME280;55128;50.230;18.944;2022-08-21T19:12:44;98147.34;;;18.12;82.99
63535;BME280;55128;50.230;18.944;2022-08-21T19:17:46;98126.28;;;17.96;83.86
63535;BME280;55128;50.230;18.944;2022-08-21T19:22:48;98116.31;;;17.86;83.99
63535;BME280;55128;50.230;18.944;2022-08-21T19:27:48;98115.41;;;17.97;83.84
63535;BME280;55128;50.230;18.944;2022-08-21T19:32:49;98097.88;;;17.82;84.39
63535;BME280;55128;50.230;18.944;2022-08-21T19:37:49;98100.31;;;17.96;83.84
63535;BME280;55128;50.230;18.944;2022-08-21T19:42:50;98104.81;;;17.96;84.12
63535;BME280;55128;50.230;18.944;2022-08-21T19:47:51;98086.66;;;17.88;84.08
63535;BME280;55128;50.230;18.944;2022-08-21T19:52:51;98079.44;;;17.88;84.60
63535;BME280;55128;50.230;18.944;2022-08-21T19:57:52;98077.63;;;17.89;85.00
63535;BME280;55128;50.230;18.944;2022-08-21T20:02:53;98077.34;;;17.92;84.71
63535;BME280;55128;50.230;18.944;2022-08-21T20:07:54;98070.88;;;17.95;84.79
63535;BME280;55128;50.230;18.944;2022-08-21T20:12:55;98081.81;;;18.03;84.14
63535;BME280;55128;50.230;18.944;2022-08-21T20:17:55;98089.75;;;18.04;84.39
63535;BME280;55128;50.230;18.944;2022-08-21T20:22:56;98081.44;;;18.08;84.69
63535;BME280;55128;50.230;18.944;2022-08-21T20:27:57;98071.72;;;17.95;85.05
63535;BME280;55128;50.230;18.944;2022-08-21T20:32:57;98066.00;;;17.88;85.42
63535;BME280;55128;50.230;18.944;2022-08-21T20:37:58;98053.75;;;17.75;86.42
63535;BME280;55128;50.230;18.944;2022-08-21T20:42:59;98057.84;;;17.79;86.19
63535;BME280;55128;50.230;18.944;2022-08-21T20:48:16;98058.72;;;17.79;86.68
63535;BME280;55128;50.230;18.944;2022-08-21T20:58:44;98043.84;;;17.75;87.31
63535;BME280;55128;50.230;18.944;2022-08-21T21:03:56;98054.34;;;17.78;87.35
63535;BME280;55128;50.230;18.944;2022-08-21T21:09:08;98055.88;;;17.92;87.03
63535;BME280;55128;50.230;18.944;2022-08-21T21:14:16;98047.16;;;18.00;86.95
63535;BME280;55128;50.230;18.944;2022-08-21T21:19:30;98053.19;;;18.13;86.50
63535;BME280;55128;50.230;18.944;2022-08-21T21:24:56;98049.69;;;18.22;85.81
63535;BME280;55128;50.230;18.944;2022-08-21T21:30:27;98064.75;;;18.35;85.74
63535;BME280;55128;50.230;18.944;2022-08-21T21:36:02;98066.56;;;18.24;85.57
63535;BME280;55128;50.230;18.944;2022-08-21T21:46:46;98055.25;;;18.31;85.58
63535;BME280;55128;50.230;18.944;2022-08-21T22:03:00;98053.28;;;18.63;84.80
63535;BME280;55128;50.230;18.944;2022-08-21T22:13:50;98061.63;;;18.60;84.60
63535;BME280;55128;50.230;18.944;2022-08-21T22:19:01;98065.31;;;18.69;84.30
63535;BME280;55128;50.230;18.944;2022-08-21T22:24:30;98063.09;;;18.74;84.47
63535;BME280;55128;50.230;18.944;2022-08-21T22:29:52;98050.91;;;18.70;84.72
63535;BME280;55128;50.230;18.944;2022-08-21T22:35:22;98047.50;;;18.68;85.21
63535;BME280;55128;50.230;18.944;2022-08-21T22:40:30;98041.91;;;18.81;84.90
63535;BME280;55128;50.230;18.944;2022-08-21T22:45:57;98040.81;;;18.93;84.75
63535;BME280;55128;50.230;18.944;2022-08-21T22:51:27;98043.91;;;18.89;84.91
63535;BME280;55128;50.230;18.944;2022-08-21T22:56:39;98034.72;;;18.91;85.00
63535;BME280;55128;50.230;18.944;2022-08-21T23:01:43;98033.31;;;18.97;84.53
63535;BME280;55128;50.230;18.944;2022-08-21T23:06:53;98029.47;;;18.90;85.12
63535;BME280;55128;50.230;18.944;2022-08-21T23:12:03;98028.88;;;18.86;85.38
63535;BME280;55128;50.230;18.944;2022-08-21T23:17:14;98030.59;;;18.87;85.62
63535;BME280;55128;50.230;18.944;2022-08-21T23:22:43;98026.06;;;18.88;85.53
63535;BME280;55128;50.230;18.944;2022-08-21T23:39:20;98026.56;;;18.72;86.31
63535;BME280;55128;50.230;18.944;2022-08-21T23:44:36;98023.44;;;18.67;86.38
63535;BME280;55128;50.230;18.944;2022-08-21T23:49:51;98016.31;;;18.56;87.06
63535;BME280;55128;50.230;18.944;2022-08-21T23:55:17;98023.41;;;18.57;87.15
